sensor_id;sensor_type;location;lat;lon;timestamp;P1;durP1;ratioP1;P2;durP2;ratioP2
10446;SDS011;5271;44.422;26.092;2023-04-25T00:01:39;0.70;;;0.70;;
10446;SDS011;5271;44.422;26.092;2023-04-25T00:04:06;0.67;;;0.67;;
10446;SDS011;5271;44.422;26.092;2023-04-25T00:06:34;0.70;;;0.70;;
10446;SDS011;5271;44.422;26.092;2023-04-25T00:09:03;0.70;;;0.70;;
10446;SDS011;5271;44.422;26.092;2023-04-25T00:11:32;0.80;;;0.80;;
10446;SDS011;5271;44.422;26.092;2023-04-25T00:13:59;0.70;;;0.70;;
10446;SDS011;5271;44.422;26.092;2023-04-25T00:16:27;0.70;;;0.70;;
10446;SDS011;5271;44.422;26.092;2023-04-25T00:18:55;0.70;;;0.70;;
10446;SDS011;5271;44.422;26.092;2023-04-25T00:21:23;0.70;;;0.70;;
10446;SDS011;5271;44.422;26.092;2023-04-25T00:23:52;0.70;;;0.70;;
10446;SDS011;5271;44.422;26.092;2023-04-25T00:26:20;0.60;;;0.60;;
10446;SDS011;5271;44.422;26.092;2023-04-25T00:28:47;0.60;;;0.60;;
10446;SDS011;5271;44.422;26.092;2023-04-25T00:31:14;0.70;;;0.70;;
10446;SDS011;5271;44.422;26.092;2023-04-25T00:33:41;0.70;;;0.70;;
10446;SDS011;5271;44.422;26.092;2023-04-25T00:36:08;0.70;;;0.70;;
10446;SDS011;5271;44.422;26.092;2023-04-25T00:38:35;0.70;;;0.70;;
10446;SDS011;5271;44.422;26.092;2023-04-25T00:41:03;0.80;;;0.80;;
10446;SDS011;5271;44.422;26.092;2023-04-25T00:43:33;0.70;;;0.70;;
10446;SDS011;5271;44.422;26.092;2023-04-25T00:46:00;0.70;;;0.70;;
10446;SDS011;5271;44.422;26.092;2023-04-25T00:48:27;0.70;;;0.70;;
10446;SDS011;5271;44.422;26.092;2023-04-25T00:50:54;0.70;;;0.70;;
10446;SDS011;5271;44.422;26.092;2023-04-25T00:53:23;0.70;;;0.70;;
10446;SDS011;5271;44.422;26.092;2023-04-25T00:55:51;0.70;;;0.70;;
10446;SDS011;5271;44.422;26.092;2023-04-25T00:58:18;0.73;;;0.73;;
10446;SDS011;5271;44.422;26.092;2023-04-25T01:00:47;0.60;;;0.60;;
10446;SDS011;5271;44.422;26.092;2023-04-25T01:03:15;0.80;;;0.80;;
10446;SDS011;5271;44.422;26.092;2023-04-25T01:05:44;0.80;;;0.80;;
10446;SDS011;5271;44.422;26.092;2023-04-25T01:08:12;0.80;;;0.80;;
10446;SDS011;5271;44.422;26.092;2023-04-25T01:10:39;0.80;;;0.80;;
10446;SDS011;5271;44.422;26.092;2023-04-25T01:13:06;0.80;;;0.80;;
10446;SDS011;5271;44.422;26.092;2023-04-25T01:15:33;0.80;;;0.80;;
10446;SDS011;5271;44.422;26.092;2023-04-25T01:18:02;0.90;;;0.90;;
10446;SDS011;5271;44.422;26.092;2023-04-25T01:20:30;0.80;;;0.80;;
10446;SDS011;5271;44.422;26.092;2023-04-25T01:23:00;0.80;;;0.80;;
10446;SDS011;5271;44.422;26.092;2023-04-25T01:25:28;0.80;;;0.80;;
10446;SDS011;5271;44.422;26.092;2023-04-25T01:27:55;0.80;;;0.80;;
10446;SDS011;5271;44.422;26.092;2023-04-25T01:30:23;0.90;;;0.90;;
10446;SDS011;5271;44.422;26.092;2023-04-25T01:32:52;0.90;;;0.90;;
10446;SDS011;5271;44.422;26.092;2023-04-25T01:35:21;0.90;;;0.90;;
10446;SDS011;5271;44.422;26.092;2023-04-25T01:37:50;0.90;;;0.90;;
10446;SDS011;5271;44.422;26.092;2023-04-25T01:40:19;0.90;;;0.90;;
10446;SDS011;5271;44.422;26.092;2023-04-25T01:42:48;0.90;;;0.90;;
10446;SDS011;5271;44.422;26.092;2023-04-25T01:45:15;0.90;;;0.90;;
10446;SDS011;5271;44.422;26.092;2023-04-25T01:47:43;0.90;;;0.90;;
10446;SDS011;5271;44.422;26.092;2023-04-25T01:50:13;0.90;;;0.90;;
10446;SDS011;5271;44.422;26.092;2023-04-25T01:52:41;0.90;;;0.90;;
10446;SDS011;5271;44.422;26.092;2023-04-25T01:55:08;0.90;;;0.90;;
10446;SDS011;5271;44.422;26.092;2023-04-25T01:57:37;0.90;;;0.90;;
10446;SDS011;5271;44.422;26.092;2023-04-25T02:00:05;0.90;;;0.90;;
10446;SDS011;5271;44.422;26.092;2023-04-25T02:02:33;0.90;;;0.90;;
10446;SDS011;5271;44.422;26.092;2023-04-25T02:05:00;0.90;;;0.90;;
10446;SDS011;5271;44.422;26.092;2023-04-25T02:07:27;0.90;;;0.90;;
10446;SDS011;5271;44.422;26.092;2023-04-25T02:09:54;0.90;;;0.90;;
10446;SDS011;5271;44.422;26.092;2023-04-25T02:12:21;0.90;;;0.90;;
10446;SDS011;5271;44.422;26.092;2023-04-25T02:14:49;0.90;;;0.90;;
10446;SDS011;5271;44.422;26.092;2023-04-25T02:17:16;0.90;;;0.90;;
10446;SDS011;5271;44.422;26.092;2023-04-25T02:19:43;0.80;;;0.80;;
10446;SDS011;5271;44.422;26.092;2023-04-25T02:22:10;0.90;;;0.90;;
10446;SDS011;5271;44.422;26.092;2023-04-25T02:24:37;0.90;;;0.90;;
10446;SDS011;5271;44.422;26.092;2023-04-25T02:27:04;1.00;;;1.00;;
10446;SDS011;5271;44.422;26.092;2023-04-25T02:29:32;0.90;;;0.90;;
10446;SDS011;5271;44.422;26.092;2023-04-25T02:32:01;0.90;;;0.90;;
10446;SDS011;5271;44.422;26.092;2023-04-25T02:34:28;0.93;;;0.93;;
10446;SDS011;5271;44.422;26.092;2023-04-25T02:36:55;0.90;;;0.90;;
10446;SDS011;5271;44.422;26.092;2023-04-25T02:39:21;0.90;;;0.90;;
10446;SDS011;5271;44.422;26.092;2023-04-25T02:41:50;0.90;;;0.90;;
10446;SDS011;5271;44.422;26.092;2023-04-25T02:44:17;0.90;;;0.90;;
10446;SDS011;5271;44.422;26.092;2023-04-25T02:46:43;0.90;;;0.90;;
10446;SDS011;5271;44.422;26.092;2023-04-25T02:49:12;1.00;;;1.00;;
10446;SDS011;5271;44.422;26.092;2023-04-25T02:51:38;1.00;;;1.00;;
10446;SDS011;5271;44.422;26.092;2023-04-25T02:54:05;0.90;;;0.90;;
10446;SDS011;5271;44.422;26.092;2023-04-25T02:56:32;0.90;;;0.90;;
10446;SDS011;5271;44.422;26.092;2023-04-25T02:58:59;0.80;;;0.80;;
10446;SDS011;5271;44.422;26.092;2023-04-25T03:01:26;0.90;;;0.90;;
10446;SDS011;5271;44.422;26.092;2023-04-25T03:03:53;0.90;;;0.90;;
10446;SDS011;5271;44.422;26.092;2023-04-25T03:06:21;0.80;;;0.80;;
10446;SDS011;5271;44.422;26.092;2023-04-25T03:08:48;0.80;;;0.80;;
10446;SDS011;5271;44.422;26.092;2023-04-25T03:11:14;0.90;;;0.90;;
10446;SDS011;5271;44.422;26.092;2023-04-25T03:13:41;0.90;;;0.90;;
10446;SDS011;5271;44.422;26.092;2023-04-25T03:16:08;0.80;;;0.80;;
10446;SDS011;5271;44.422;26.092;2023-04-25T03:18:35;0.80;;;0.80;;
10446;SDS011;5271;44.422;26.092;2023-04-25T03:21:02;0.90;;;0.90;;
10446;SDS011;5271;44.422;26.092;2023-04-25T03:23:30;0.90;;;0.90;;
10446;SDS011;5271;44.422;26.092;2023-04-25T03:25:57;0.80;;;0.80;;
10446;SDS011;5271;44.422;26.092;2023-04-25T03:28:24;0.90;;;0.90;;
10446;SDS011;5271;44.422;26.092;2023-04-25T03:30:51;0.90;;;0.90;;
10446;SDS011;5271;44.422;26.092;2023-04-25T03:33:19;0.80;;;0.80;;
10446;SDS011;5271;44.422;26.092;2023-04-25T03:35:45;0.90;;;0.90;;
10446;SDS011;5271;44.422;26.092;2023-04-25T03:38:12;0.90;;;0.90;;
10446;SDS011;5271;44.422;26.092;2023-04-25T03:40:40;0.83;;;0.83;;
10446;SDS011;5271;44.422;26.092;2023-04-25T03:43:07;0.90;;;0.90;;
10446;SDS011;5271;44.422;26.092;2023-04-25T03:45:34;0.90;;;0.90;;
10446;SDS011;5271;44.422;26.092;2023-04-25T03:48:01;0.90;;;0.90;;
10446;SDS011;5271;44.422;26.092;2023-04-25T03:50:28;1.00;;;1.00;;
10446;SDS011;5271;44.422;26.092;2023-04-25T03:52:55;0.80;;;0.80;;
10446;SDS011;5271;44.422;26.092;2023-04-25T03:55:22;0.90;;;0.90;;
10446;SDS011;5271;44.422;26.092;2023-04-25T03:57:50;1.00;;;1.00;;
10446;SDS011;5271;44.422;26.092;2023-04-25T04:00:17;0.80;;;0.80;;
10446;SDS011;5271;44.422;26.092;2023-04-25T04:02:44;0.80;;;0.80;;
10446;SDS011;5271;44.422;26.092;2023-04-25T04:05:11;0.90;;;0.90;;
10446;SDS011;5271;44.422;26.092;2023-04-25T04:07:37;0.93;;;0.93;;
10446;SDS011;5271;44.422;26.092;2023-04-25T04:10:07;0.80;;;0.80;;
10446;SDS011;5271;44.422;26.092;2023-04-25T04:12:35;0.90;;;0.90;;
10446;SDS011;5271;44.422;26.092;2023-04-25T04:15:03;0.90;;;0.90;;
10446;SDS011;5271;44.422;26.092;2023-04-25T04:17:31;0.90;;;0.90;;
10446;SDS011;5271;44.422;26.092;2023-04-25T04:19:58;0.80;;;0.80;;
10446;SDS011;5271;44.422;26.092;2023-04-25T04:22:25;0.87;;;0.87;;
10446;SDS011;5271;44.422;26.092;2023-04-25T04:24:52;0.90;;;0.90;;
10446;SDS011;5271;44.422;26.092;2023-04-25T04:27:19;0.90;;;0.90;;
10446;SDS011;5271;44.422;26.092;2023-04-25T04:29:47;0.90;;;0.90;;
10446;SDS011;5271;44.422;26.092;2023-04-25T04:32:16;0.90;;;0.90;;
10446;SDS011;5271;44.422;26.092;2023-04-25T04:34:43;1.00;;;1.00;;
10446;SDS011;5271;44.422;26.092;2023-04-25T04:37:12;0.93;;;0.93;;
10446;SDS011;5271;44.422;26.092;2023-04-25T04:39:39;1.00;;;1.00;;
10446;SDS011;5271;44.422;26.092;2023-04-25T04:42:06;1.00;;;1.00;;
10446;SDS011;5271;44.422;26.092;2023-04-25T04:44:33;1.00;;;1.00;;
10446;SDS011;5271;44.422;26.092;2023-04-25T04:47:00;1.00;;;1.00;;
10446;SDS011;5271;44.422;26.092;2023-04-25T04:49:30;1.00;;;1.00;;
10446;SDS011;5271;44.422;26.092;2023-04-25T04:51:56;1.00;;;1.00;;
10446;SDS011;5271;44.422;26.092;2023-04-25T04:54:24;1.00;;;1.00;;
10446;SDS011;5271;44.422;26.092;2023-04-25T04:56:52;1.00;;;1.00;;
10446;SDS011;5271;44.422;26.092;2023-04-25T04:59:18;1.00;;;1.00;;
10446;SDS011;5271;44.422;26.092;2023-04-25T05:01:46;0.97;;;0.97;;
10446;SDS011;5271;44.422;26.092;2023-04-25T05:04:13;1.00;;;1.00;;
10446;SDS011;5271;44.422;26.092;2023-04-25T05:06:41;1.00;;;1.00;;
10446;SDS011;5271;44.422;26.092;2023-04-25T05:09:09;1.00;;;1.00;;
10446;SDS011;5271;44.422;26.092;2023-04-25T05:11:36;1.00;;;1.00;;
10446;SDS011;5271;44.422;26.092;2023-04-25T05:14:02;1.07;;;1.07;;
10446;SDS011;5271;44.422;26.092;2023-04-25T05:16:29;1.00;;;1.00;;
10446;SDS011;5271;44.422;26.092;2023-04-25T05:18:56;1.00;;;1.00;;
10446;SDS011;5271;44.422;26.092;2023-04-25T05:21:23;1.10;;;1.10;;
10446;SDS011;5271;44.422;26.092;2023-04-25T05:23:51;1.00;;;1.00;;
10446;SDS011;5271;44.422;26.092;2023-04-25T05:26:18;1.03;;;1.03;;
10446;SDS011;5271;44.422;26.092;2023-04-25T05:28:45;1.10;;;1.10;;
10446;SDS011;5271;44.422;26.092;2023-04-25T05:31:12;1.00;;;1.00;;
10446;SDS011;5271;44.422;26.092;2023-04-25T05:33:39;1.00;;;1.00;;
10446;SDS011;5271;44.422;26.092;2023-04-25T05:36:06;1.00;;;1.00;;
10446;SDS011;5271;44.422;26.092;2023-04-25T05:38:34;1.10;;;1.10;;
10446;SDS011;5271;44.422;26.092;2023-04-25T05:41:02;1.10;;;1.10;;
10446;SDS011;5271;44.422;26.092;2023-04-25T05:43:29;1.00;;;1.00;;
10446;SDS011;5271;44.422;26.092;2023-04-25T05:45:56;1.00;;;1.00;;
10446;SDS011;5271;44.422;26.092;2023-04-25T05:48:22;1.10;;;1.10;;
10446;SDS011;5271;44.422;26.092;2023-04-25T05:50:49;1.10;;;1.10;;
10446;SDS011;5271;44.422;26.092;2023-04-25T05:53:17;1.10;;;1.10;;
10446;SDS011;5271;44.422;26.092;2023-04-25T05:55:44;1.00;;;1.00;;
10446;SDS011;5271;44.422;26.092;2023-04-25T05:58:12;1.07;;;1.07;;
10446;SDS011;5271;44.422;26.092;2023-04-25T06:00:39;1.10;;;1.10;;
10446;SDS011;5271;44.422;26.092;2023-04-25T06:03:06;1.10;;;1.10;;
10446;SDS011;5271;44.422;26.092;2023-04-25T06:05:34;1.00;;;1.00;;
10446;SDS011;5271;44.422;26.092;2023-04-25T06:08:01;1.00;;;1.00;;
10446;SDS011;5271;44.422;26.092;2023-04-25T06:10:28;1.00;;;1.00;;
10446;SDS011;5271;44.422;26.092;2023-04-25T06:12:55;1.00;;;1.00;;
10446;SDS011;5271;44.422;26.092;2023-04-25T06:15:23;1.00;;;1.00;;
10446;SDS011;5271;44.422;26.092;2023-04-25T06:17:50;1.00;;;1.00;;
10446;SDS011;5271;44.422;26.092;2023-04-25T06:20:17;1.00;;;1.00;;
10446;SDS011;5271;44.422;26.092;2023-04-25T06:22:48;1.00;;;1.00;;
10446;SDS011;5271;44.422;26.092;2023-04-25T06:25:15;1.00;;;1.00;;
10446;SDS011;5271;44.422;26.092;2023-04-25T06:27:42;1.00;;;1.00;;
10446;SDS011;5271;44.422;26.092;2023-04-25T06:30:09;0.90;;;0.90;;
10446;SDS011;5271;44.422;26.092;2023-04-25T06:32:38;1.00;;;1.00;;
10446;SDS011;5271;44.422;26.092;2023-04-25T06:35:05;1.00;;;1.00;;
10446;SDS011;5271;44.422;26.092;2023-04-25T06:37:33;1.00;;;1.00;;
10446;SDS011;5271;44.422;26.092;2023-04-25T06:39:59;1.00;;;1.00;;
10446;SDS011;5271;44.422;26.092;2023-04-25T06:42:27;0.90;;;0.90;;
10446;SDS011;5271;44.422;26.092;2023-04-25T06:44:54;0.90;;;0.90;;
10446;SDS011;5271;44.422;26.092;2023-04-25T06:47:21;0.90;;;0.90;;
10446;SDS011;5271;44.422;26.092;2023-04-25T06:49:49;1.00;;;1.00;;
10446;SDS011;5271;44.422;26.092;2023-04-25T06:52:16;0.90;;;0.90;;
10446;SDS011;5271;44.422;26.092;2023-04-25T06:54:43;0.90;;;0.90;;
10446;SDS011;5271;44.422;26.092;2023-04-25T06:57:10;0.90;;;0.90;;
10446;SDS011;5271;44.422;26.092;2023-04-25T06:59:37;0.90;;;0.90;;
10446;SDS011;5271;44.422;26.092;2023-04-25T07:02:04;0.90;;;0.90;;
10446;SDS011;5271;44.422;26.092;2023-04-25T07:04:31;1.00;;;1.00;;
10446;SDS011;5271;44.422;26.092;2023-04-25T07:06:59;0.97;;;0.97;;
10446;SDS011;5271;44.422;26.092;2023-04-25T07:09:27;1.10;;;1.10;;
10446;SDS011;5271;44.422;26.092;2023-04-25T07:11:54;1.00;;;1.00;;
10446;SDS011;5271;44.422;26.092;2023-04-25T07:14:22;1.00;;;1.00;;
10446;SDS011;5271;44.422;26.092;2023-04-25T07:16:49;1.00;;;1.00;;
10446;SDS011;5271;44.422;26.092;2023-04-25T07:19:15;1.00;;;1.00;;
10446;SDS011;5271;44.422;26.092;2023-04-25T07:21:42;0.97;;;0.97;;
10446;SDS011;5271;44.422;26.092;2023-04-25T07:24:11;0.90;;;0.90;;
10446;SDS011;5271;44.422;26.092;2023-04-25T07:26:37;1.00;;;1.00;;
10446;SDS011;5271;44.422;26.092;2023-04-25T07:29:04;1.00;;;1.00;;
10446;SDS011;5271;44.422;26.092;2023-04-25T07:31:31;1.00;;;1.00;;
10446;SDS011;5271;44.422;26.092;2023-04-25T07:33:58;1.00;;;1.00;;
10446;SDS011;5271;44.422;26.092;2023-04-25T07:36:25;1.00;;;1.00;;
10446;SDS011;5271;44.422;26.092;2023-04-25T07:38:52;0.90;;;0.90;;
10446;SDS011;5271;44.422;26.092;2023-04-25T07:41:20;0.90;;;0.90;;
10446;SDS011;5271;44.422;26.092;2023-04-25T07:43:47;0.80;;;0.80;;
10446;SDS011;5271;44.422;26.092;2023-04-25T07:46:14;0.70;;;0.70;;
10446;SDS011;5271;44.422;26.092;2023-04-25T07:48:40;0.60;;;0.60;;
10446;SDS011;5271;44.422;26.092;2023-04-25T07:51:07;0.50;;;0.50;;
10446;SDS011;5271;44.422;26.092;2023-04-25T07:53:34;0.50;;;0.50;;
10446;SDS011;5271;44.422;26.092;2023-04-25T07:56:02;0.60;;;0.60;;
10446;SDS011;5271;44.422;26.092;2023-04-25T07:58:31;0.50;;;0.50;;
10446;SDS011;5271;44.422;26.092;2023-04-25T08:00:57;0.60;;;0.60;;
10446;SDS011;5271;44.422;26.092;2023-04-25T08:03:25;0.60;;;0.60;;
10446;SDS011;5271;44.422;26.092;2023-04-25T08:05:51;0.63;;;0.63;;
10446;SDS011;5271;44.422;26.092;2023-04-25T08:08:18;0.70;;;0.70;;
10446;SDS011;5271;44.422;26.092;2023-04-25T08:10:45;0.70;;;0.70;;
10446;SDS011;5271;44.422;26.092;2023-04-25T08:13:13;0.60;;;0.60;;
10446;SDS011;5271;44.422;26.092;2023-04-25T08:15:41;0.70;;;0.70;;
10446;SDS011;5271;44.422;26.092;2023-04-25T08:18:08;0.70;;;0.70;;
10446;SDS011;5271;44.422;26.092;2023-04-25T08:20:35;0.77;;;0.77;;
10446;SDS011;5271;44.422;26.092;2023-04-25T08:23:02;0.70;;;0.70;;
10446;SDS011;5271;44.422;26.092;2023-04-25T08:25:28;0.70;;;0.70;;
10446;SDS011;5271;44.422;26.092;2023-04-25T08:27:55;0.70;;;0.70;;
10446;SDS011;5271;44.422;26.092;2023-04-25T08:30:24;0.70;;;0.70;;
10446;SDS011;5271;44.422;26.092;2023-04-25T08:32:53;0.70;;;0.70;;
10446;SDS011;5271;44.422;26.092;2023-04-25T08:35:20;0.70;;;0.70;;
10446;SDS011;5271;44.422;26.092;2023-04-25T08:37:47;0.80;;;0.80;;
10446;SDS011;5271;44.422;26.092;2023-04-25T08:40:14;0.70;;;0.70;;
10446;SDS011;5271;44.422;26.092;2023-04-25T08:42:42;0.80;;;0.80;;
10446;SDS011;5271;44.422;26.092;2023-04-25T08:45:09;0.60;;;0.60;;
10446;SDS011;5271;44.422;26.092;2023-04-25T08:47:37;0.70;;;0.70;;
10446;SDS011;5271;44.422;26.092;2023-04-25T08:50:06;0.70;;;0.70;;
10446;SDS011;5271;44.422;26.092;2023-04-25T08:52:35;0.70;;;0.70;;
10446;SDS011;5271;44.422;26.092;2023-04-25T08:55:03;0.80;;;0.80;;
10446;SDS011;5271;44.422;26.092;2023-04-25T08:57:33;0.80;;;0.80;;
10446;SDS011;5271;44.422;26.092;2023-04-25T09:00:01;0.80;;;0.80;;
10446;SDS011;5271;44.422;26.092;2023-04-25T09:02:29;0.70;;;0.70;;
10446;SDS011;5271;44.422;26.092;2023-04-25T09:04:56;0.80;;;0.80;;
10446;SDS011;5271;44.422;26.092;2023-04-25T09:07:25;0.77;;;0.77;;
10446;SDS011;5271;44.422;26.092;2023-04-25T09:09:52;0.80;;;0.80;;
10446;SDS011;5271;44.422;26.092;2023-04-25T09:12:19;0.70;;;0.70;;
10446;SDS011;5271;44.422;26.092;2023-04-25T09:15:01;0.70;;;0.70;;
10446;SDS011;5271;44.422;26.092;2023-04-25T09:17:30;0.70;;;0.70;;
10446;SDS011;5271;44.422;26.092;2023-04-25T09:20:04;0.80;;;0.80;;
10446;SDS011;5271;44.422;26.092;2023-04-25T09:22:34;0.70;;;0.70;;
10446;SDS011;5271;44.422;26.092;2023-04-25T09:25:02;0.80;;;0.80;;
10446;SDS011;5271;44.422;26.092;2023-04-25T09:27:31;0.70;;;0.70;;
10446;SDS011;5271;44.422;26.092;2023-04-25T09:29:59;0.70;;;0.70;;
10446;SDS011;5271;44.422;26.092;2023-04-25T09:32:26;0.80;;;0.80;;
10446;SDS011;5271;44.422;26.092;2023-04-25T09:34:54;0.80;;;0.80;;
10446;SDS011;5271;44.422;26.092;2023-04-25T09:37:23;0.70;;;0.70;;
10446;SDS011;5271;44.422;26.092;2023-04-25T09:39:52;0.70;;;0.70;;
10446;SDS011;5271;44.422;26.092;2023-04-25T09:42:21;0.70;;;0.70;;
10446;SDS011;5271;44.422;26.092;2023-04-25T09:44:49;0.70;;;0.70;;
10446;SDS011;5271;44.422;26.092;2023-04-25T09:47:18;0.70;;;0.70;;
10446;SDS011;5271;44.422;26.092;2023-04-25T09:49:46;0.67;;;0.67;;
10446;SDS011;5271;44.422;26.092;2023-04-25T09:52:14;0.70;;;0.70;;
10446;SDS011;5271;44.422;26.092;2023-04-25T09:54:43;0.70;;;0.70;;
10446;SDS011;5271;44.422;26.092;2023-04-25T09:57:12;0.70;;;0.70;;
10446;SDS011;5271;44.422;26.092;2023-04-25T09:59:43;0.70;;;0.70;;
10446;SDS011;5271;44.422;26.092;2023-04-25T10:02:11;0.70;;;0.70;;
10446;SDS011;5271;44.422;26.092;2023-04-25T10:04:38;0.60;;;0.60;;
10446;SDS011;5271;44.422;26.092;2023-04-25T10:07:07;0.67;;;0.67;;
10446;SDS011;5271;44.422;26.092;2023-04-25T10:09:36;0.60;;;0.60;;
10446;SDS011;5271;44.422;26.092;2023-04-25T10:12:04;0.60;;;0.60;;
10446;SDS011;5271;44.422;26.092;2023-04-25T10:14:33;0.60;;;0.60;;
10446;SDS011;5271;44.422;26.092;2023-04-25T10:17:02;0.70;;;0.70;;
10446;SDS011;5271;44.422;26.092;2023-04-25T10:19:29;0.63;;;0.63;;
10446;SDS011;5271;44.422;26.092;2023-04-25T10:21:58;0.70;;;0.70;;
10446;SDS011;5271;44.422;26.092;2023-04-25T10:24:31;0.70;;;0.70;;
10446;SDS011;5271;44.422;26.092;2023-04-25T10:26:59;0.70;;;0.70;;
10446;SDS011;5271;44.422;26.092;2023-04-25T10:29:27;0.60;;;0.60;;
10446;SDS011;5271;44.422;26.092;2023-04-25T10:31:55;0.70;;;0.70;;
10446;SDS011;5271;44.422;26.092;2023-04-25T10:34:23;0.70;;;0.70;;
10446;SDS011;5271;44.422;26.092;2023-04-25T10:37:03;0.60;;;0.60;;
10446;SDS011;5271;44.422;26.092;2023-04-25T10:39:30;0.60;;;0.60;;
10446;SDS011;5271;44.422;26.092;2023-04-25T10:41:58;0.70;;;0.70;;
10446;SDS011;5271;44.422;26.092;2023-04-25T10:44:27;0.70;;;0.70;;
10446;SDS011;5271;44.422;26.092;2023-04-25T10:46:56;0.60;;;0.60;;
10446;SDS011;5271;44.422;26.092;2023-04-25T10:49:31;0.70;;;0.70;;
10446;SDS011;5271;44.422;26.092;2023-04-25T10:52:15;0.70;;;0.70;;
10446;SDS011;5271;44.422;26.092;2023-04-25T10:54:47;0.60;;;0.60;;
10446;SDS011;5271;44.422;26.092;2023-04-25T10:57:26;0.60;;;0.60;;
10446;SDS011;5271;44.422;26.092;2023-04-25T10:59:57;0.60;;;0.60;;
10446;SDS011;5271;44.422;26.092;2023-04-25T11:02:27;0.60;;;0.60;;
10446;SDS011;5271;44.422;26.092;2023-04-25T11:04:55;0.60;;;0.60;;
10446;SDS011;5271;44.422;26.092;2023-04-25T11:07:25;0.50;;;0.50;;
10446;SDS011;5271;44.422;26.092;2023-04-25T11:09:58;0.60;;;0.60;;
10446;SDS011;5271;44.422;26.092;2023-04-25T11:12:29;0.50;;;0.50;;
10446;SDS011;5271;44.422;26.092;2023-04-25T11:15:00;0.60;;;0.60;;
10446;SDS011;5271;44.422;26.092;2023-04-25T11:17:29;0.50;;;0.50;;
10446;SDS011;5271;44.422;26.092;2023-04-25T11:19:56;0.60;;;0.60;;
10446;SDS011;5271;44.422;26.092;2023-04-25T11:22:23;0.50;;;0.50;;
10446;SDS011;5271;44.422;26.092;2023-04-25T11:24:52;0.50;;;0.50;;
10446;SDS011;5271;44.422;26.092;2023-04-25T11:27:19;0.50;;;0.50;;
10446;SDS011;5271;44.422;26.092;2023-04-25T11:29:47;0.50;;;0.50;;
10446;SDS011;5271;44.422;26.092;2023-04-25T11:32:14;0.50;;;0.50;;
10446;SDS011;5271;44.422;26.092;2023-04-25T11:34:44;0.50;;;0.50;;
10446;SDS011;5271;44.422;26.092;2023-04-25T11:37:11;0.50;;;0.50;;
10446;SDS011;5271;44.422;26.092;2023-04-25T11:39:39;0.50;;;0.50;;
10446;SDS011;5271;44.422;26.092;2023-04-25T11:42:11;0.50;;;0.50;;
10446;SDS011;5271;44.422;26.092;2023-04-25T11:44:37;0.50;;;0.50;;
10446;SDS011;5271;44.422;26.092;2023-04-25T11:47:05;0.50;;;0.50;;
10446;SDS011;5271;44.422;26.092;2023-04-25T11:49:32;0.50;;;0.50;;
10446;SDS011;5271;44.422;26.092;2023-04-25T11:52:02;0.50;;;0.50;;
10446;SDS011;5271;44.422;26.092;2023-04-25T11:54:29;0.50;;;0.50;;
10446;SDS011;5271;44.422;26.092;2023-04-25T11:56:55;0.50;;;0.50;;
10446;SDS011;5271;44.422;26.092;2023-04-25T11:59:23;0.50;;;0.50;;
10446;SDS011;5271;44.422;26.092;2023-04-25T12:01:51;0.50;;;0.50;;
10446;SDS011;5271;44.422;26.092;2023-04-25T12:04:19;0.50;;;0.50;;
10446;SDS011;5271;44.422;26.092;2023-04-25T12:06:48;0.60;;;0.60;;
10446;SDS011;5271;44.422;26.092;2023-04-25T12:09:19;0.50;;;0.50;;
10446;SDS011;5271;44.422;26.092;2023-04-25T12:11:47;0.50;;;0.50;;
10446;SDS011;5271;44.422;26.092;2023-04-25T12:14:21;0.50;;;0.50;;
10446;SDS011;5271;44.422;26.092;2023-04-25T12:16:49;0.60;;;0.60;;
10446;SDS011;5271;44.422;26.092;2023-04-25T12:19:17;0.50;;;0.50;;
10446;SDS011;5271;44.422;26.092;2023-04-25T12:21:45;0.50;;;0.50;;
10446;SDS011;5271;44.422;26.092;2023-04-25T12:24:14;0.60;;;0.60;;
10446;SDS011;5271;44.422;26.092;2023-04-25T12:26:50;0.50;;;0.50;;
10446;SDS011;5271;44.422;26.092;2023-04-25T12:29:18;0.60;;;0.60;;
10446;SDS011;5271;44.422;26.092;2023-04-25T12:31:46;0.50;;;0.50;;
10446;SDS011;5271;44.422;26.092;2023-04-25T12:34:13;0.50;;;0.50;;
10446;SDS011;5271;44.422;26.092;2023-04-25T12:36:40;0.57;;;0.57;;
10446;SDS011;5271;44.422;26.092;2023-04-25T12:39:07;0.50;;;0.50;;
10446;SDS011;5271;44.422;26.092;2023-04-25T12:41:35;0.40;;;0.40;;
10446;SDS011;5271;44.422;26.092;2023-04-25T12:44:04;0.50;;;0.50;;
10446;SDS011;5271;44.422;26.092;2023-04-25T12:46:30;0.50;;;0.50;;
10446;SDS011;5271;44.422;26.092;2023-04-25T12:48:57;0.60;;;0.60;;
10446;SDS011;5271;44.422;26.092;2023-04-25T12:51:25;0.50;;;0.50;;
10446;SDS011;5271;44.422;26.092;2023-04-25T12:53:53;0.57;;;0.57;;
10446;SDS011;5271;44.422;26.092;2023-04-25T12:56:19;0.50;;;0.50;;
10446;SDS011;5271;44.422;26.092;2023-04-25T12:58:46;0.53;;;0.53;;
10446;SDS011;5271;44.422;26.092;2023-04-25T13:01:15;0.50;;;0.50;;
10446;SDS011;5271;44.422;26.092;2023-04-25T13:03:42;0.50;;;0.50;;
10446;SDS011;5271;44.422;26.092;2023-04-25T13:06:09;0.50;;;0.50;;
10446;SDS011;5271;44.422;26.092;2023-04-25T13:08:37;0.50;;;0.50;;
10446;SDS011;5271;44.422;26.092;2023-04-25T13:11:05;0.50;;;0.50;;
10446;SDS011;5271;44.422;26.092;2023-04-25T13:13:32;0.50;;;0.50;;
10446;SDS011;5271;44.422;26.092;2023-04-25T13:15:59;0.50;;;0.50;;
10446;SDS011;5271;44.422;26.092;2023-04-25T13:18:28;0.50;;;0.50;;
10446;SDS011;5271;44.422;26.092;2023-04-25T13:20:55;0.50;;;0.50;;
10446;SDS011;5271;44.422;26.092;2023-04-25T13:23:22;0.60;;;0.60;;
10446;SDS011;5271;44.422;26.092;2023-04-25T13:25:51;0.60;;;0.60;;
10446;SDS011;5271;44.422;26.092;2023-04-25T13:28:18;0.60;;;0.60;;
10446;SDS011;5271;44.422;26.092;2023-04-25T13:30:44;0.50;;;0.50;;
10446;SDS011;5271;44.422;26.092;2023-04-25T13:33:13;0.50;;;0.50;;
10446;SDS011;5271;44.422;26.092;2023-04-25T13:35:41;0.50;;;0.50;;
10446;SDS011;5271;44.422;26.092;2023-04-25T13:38:12;0.50;;;0.50;;
10446;SDS011;5271;44.422;26.092;2023-04-25T13:40:39;0.50;;;0.50;;
10446;SDS011;5271;44.422;26.092;2023-04-25T13:43:06;0.50;;;0.50;;
10446;SDS011;5271;44.422;26.092;2023-04-25T13:45:33;0.50;;;0.50;;
10446;SDS011;5271;44.422;26.092;2023-04-25T13:47:59;0.40;;;0.40;;
10446;SDS011;5271;44.422;26.092;2023-04-25T13:50:26;0.50;;;0.50;;
10446;SDS011;5271;44.422;26.092;2023-04-25T13:52:54;0.50;;;0.50;;
10446;SDS011;5271;44.422;26.092;2023-04-25T13:55:21;0.50;;;0.50;;
10446;SDS011;5271;44.422;26.092;2023-04-25T13:57:48;0.50;;;0.50;;
10446;SDS011;5271;44.422;26.092;2023-04-25T14:00:16;0.50;;;0.50;;
10446;SDS011;5271;44.422;26.092;2023-04-25T14:02:43;0.60;;;0.60;;
10446;SDS011;5271;44.422;26.092;2023-04-25T14:05:10;0.50;;;0.50;;
10446;SDS011;5271;44.422;26.092;2023-04-25T14:07:38;0.50;;;0.50;;
10446;SDS011;5271;44.422;26.092;2023-04-25T16:38:20;0.50;;;0.50;;
10446;SDS011;5271;44.422;26.092;2023-04-25T16:40:47;0.40;;;0.40;;
10446;SDS011;5271;44.422;26.092;2023-04-25T16:43:14;0.50;;;0.50;;
10446;SDS011;5271;44.422;26.092;2023-04-25T16:45:43;0.40;;;0.40;;
10446;SDS011;5271;44.422;26.092;2023-04-25T16:48:10;0.50;;;0.50;;
10446;SDS011;5271;44.422;26.092;2023-04-25T16:50:37;0.50;;;0.50;;
10446;SDS011;5271;44.422;26.092;2023-04-25T16:53:04;0.50;;;0.50;;
10446;SDS011;5271;44.422;26.092;2023-04-25T16:55:32;0.40;;;0.40;;
10446;SDS011;5271;44.422;26.092;2023-04-25T17:00:34;0.40;;;0.40;;
10446;SDS011;5271;44.422;26.092;2023-04-25T17:03:01;0.40;;;0.40;;
10446;SDS011;5271;44.422;26.092;2023-04-25T17:05:28;0.50;;;0.50;;
10446;SDS011;5271;44.422;26.092;2023-04-25T17:07:55;0.40;;;0.40;;
10446;SDS011;5271;44.422;26.092;2023-04-25T17:10:22;0.40;;;0.40;;
10446;SDS011;5271;44.422;26.092;2023-04-25T17:12:50;0.50;;;0.50;;
10446;SDS011;5271;44.422;26.092;2023-04-25T17:15:17;0.50;;;0.50;;
10446;SDS011;5271;44.422;26.092;2023-04-25T17:17:44;0.40;;;0.40;;
10446;SDS011;5271;44.422;26.092;2023-04-25T17:20:11;0.40;;;0.40;;
10446;SDS011;5271;44.422;26.092;2023-04-25T17:22:39;0.50;;;0.50;;